sensor_id;sensor_type;location;lat;lon;timestamp;P1;durP1;ratioP1;P2;durP2;ratioP2
74363;SDS011;62797;49.740;10.154;2023-06-26T00:00:45;11.82;;;7.70;;
74363;SDS011;62797;49.740;10.154;2023-06-26T00:03:12;13.82;;;7.15;;
74363;SDS011;62797;49.740;10.154;2023-06-26T00:05:40;8.40;;;6.85;;
74363;SDS011;62797;49.740;10.154;2023-06-26T00:08:07;9.93;;;7.40;;
74363;SDS011;62797;49.740;10.154;2023-06-26T00:10:32;10.60;;;6.82;;
74363;SDS011;62797;49.740;10.154;2023-06-26T00:12:59;17.05;;;8.23;;
74363;SDS011;62797;49.740;10.154;2023-06-26T00:15:25;11.43;;;6.97;;
74363;SDS011;62797;49.740;10.154;2023-06-26T00:17:51;8.35;;;6.70;;
74363;SDS011;62797;49.740;10.154;2023-06-26T00:20:16;8.77;;;7.38;;
74363;SDS011;62797;49.740;10.154;2023-06-26T00:22:44;12.35;;;6.80;;
74363;SDS011;62797;49.740;10.154;2023-06-26T00:25:10;10.15;;;6.50;;
74363;SDS011;62797;49.740;10.154;2023-06-26T00:27:36;13.05;;;7.05;;
74363;SDS011;62797;49.740;10.154;2023-06-26T00:30:03;8.23;;;6.55;;
74363;SDS011;62797;49.740;10.154;2023-06-26T00:32:29;10.73;;;7.20;;
74363;SDS011;62797;49.740;10.154;2023-06-26T00:34:55;12.80;;;7.57;;
74363;SDS011;62797;49.740;10.154;2023-06-26T00:37:21;11.35;;;7.30;;
74363;SDS011;62797;49.740;10.154;2023-06-26T00:42:13;11.50;;;7.15;;
74363;SDS011;62797;49.740;10.154;2023-06-26T00:44:39;10.70;;;7.28;;
74363;SDS011;62797;49.740;10.154;2023-06-26T00:47:05;13.77;;;8.10;;
74363;SDS011;62797;49.740;10.154;2023-06-26T00:49:31;9.65;;;6.80;;
74363;SDS011;62797;49.740;10.154;2023-06-26T00:51:57;11.95;;;8.13;;
74363;SDS011;62797;49.740;10.154;2023-06-26T00:54:23;11.63;;;7.05;;
74363;SDS011;62797;49.740;10.154;2023-06-26T00:56:50;12.73;;;7.88;;
74363;SDS011;62797;49.740;10.154;2023-06-26T00:59:15;10.70;;;7.18;;
74363;SDS011;62797;49.740;10.154;2023-06-26T01:01:41;12.85;;;7.40;;
74363;SDS011;62797;49.740;10.154;2023-06-26T01:04:10;11.38;;;7.45;;
74363;SDS011;62797;49.740;10.154;2023-06-26T01:06:43;8.82;;;5.95;;
74363;SDS011;62797;49.740;10.154;2023-06-26T01:09:17;10.90;;;7.45;;
74363;SDS011;62797;49.740;10.154;2023-06-26T01:11:44;12.93;;;7.78;;
74363;SDS011;62797;49.740;10.154;2023-06-26T01:14:16;11.40;;;7.00;;
74363;SDS011;62797;49.740;10.154;2023-06-26T01:16:44;9.82;;;6.70;;
74363;SDS011;62797;49.740;10.154;2023-06-26T01:19:24;11.95;;;7.15;;
74363;SDS011;62797;49.740;10.154;2023-06-26T01:24:33;11.32;;;7.50;;
74363;SDS011;62797;49.740;10.154;2023-06-26T01:27:03;10.23;;;7.38;;
74363;SDS011;62797;49.740;10.154;2023-06-26T01:29:31;13.75;;;7.68;;
74363;SDS011;62797;49.740;10.154;2023-06-26T01:32:01;13.93;;;7.25;;
74363;SDS011;62797;49.740;10.154;2023-06-26T01:34:27;9.40;;;6.68;;
74363;SDS011;62797;49.740;10.154;2023-06-26T01:36:58;11.70;;;7.32;;
74363;SDS011;62797;49.740;10.154;2023-06-26T01:39:25;11.32;;;7.25;;
74363;SDS011;62797;49.740;10.154;2023-06-26T01:41:50;12.60;;;8.20;;
74363;SDS011;62797;49.740;10.154;2023-06-26T01:44:21;11.57;;;7.88;;
74363;SDS011;62797;49.740;10.154;2023-06-26T01:55:09;11.65;;;7.68;;
74363;SDS011;62797;49.740;10.154;2023-06-26T01:57:36;15.70;;;7.57;;
74363;SDS011;62797;49.740;10.154;2023-06-26T02:00:04;12.10;;;7.55;;
74363;SDS011;62797;49.740;10.154;2023-06-26T02:02:41;11.88;;;8.48;;
74363;SDS011;62797;49.740;10.154;2023-06-26T02:05:07;14.00;;;8.98;;
74363;SDS011;62797;49.740;10.154;2023-06-26T02:07:34;11.20;;;8.05;;
74363;SDS011;62797;49.740;10.154;2023-06-26T02:10:02;12.50;;;8.80;;
74363;SDS011;62797;49.740;10.154;2023-06-26T02:12:28;10.65;;;7.07;;
74363;SDS011;62797;49.740;10.154;2023-06-26T02:14:54;14.10;;;9.48;;
74363;SDS011;62797;49.740;10.154;2023-06-26T02:17:23;12.05;;;7.97;;
74363;SDS011;62797;49.740;10.154;2023-06-26T02:19:49;14.32;;;8.32;;
74363;SDS011;62797;49.740;10.154;2023-06-26T02:22:15;16.27;;;8.35;;
74363;SDS011;62797;49.740;10.154;2023-06-26T02:24:42;14.00;;;8.27;;
74363;SDS011;62797;49.740;10.154;2023-06-26T02:27:08;11.93;;;8.48;;
74363;SDS011;62797;49.740;10.154;2023-06-26T02:29:35;10.02;;;7.65;;
74363;SDS011;62797;49.740;10.154;2023-06-26T02:32:07;9.65;;;7.25;;
74363;SDS011;62797;49.740;10.154;2023-06-26T02:34:34;16.70;;;8.57;;
74363;SDS011;62797;49.740;10.154;2023-06-26T02:39:26;11.40;;;7.97;;
74363;SDS011;62797;49.740;10.154;2023-06-26T02:41:53;16.10;;;7.13;;
74363;SDS011;62797;49.740;10.154;2023-06-26T02:44:21;9.98;;;7.20;;
74363;SDS011;62797;49.740;10.154;2023-06-26T02:46:47;11.50;;;8.13;;
74363;SDS011;62797;49.740;10.154;2023-06-26T02:49:14;12.95;;;8.63;;
74363;SDS011;62797;49.740;10.154;2023-06-26T02:51:40;12.32;;;7.60;;
74363;SDS011;62797;49.740;10.154;2023-06-26T02:54:15;11.43;;;7.78;;
74363;SDS011;62797;49.740;10.154;2023-06-26T02:56:44;12.48;;;8.38;;
74363;SDS011;62797;49.740;10.154;2023-06-26T02:59:10;13.48;;;8.38;;
74363;SDS011;62797;49.740;10.154;2023-06-26T03:01:36;13.10;;;8.85;;
74363;SDS011;62797;49.740;10.154;2023-06-26T03:04:02;11.50;;;7.60;;
74363;SDS011;62797;49.740;10.154;2023-06-26T03:06:27;14.85;;;7.57;;
74363;SDS011;62797;49.740;10.154;2023-06-26T03:08:53;12.80;;;9.40;;
74363;SDS011;62797;49.740;10.154;2023-06-26T03:11:20;11.10;;;7.25;;
74363;SDS011;62797;49.740;10.154;2023-06-26T03:13:45;11.20;;;7.95;;
74363;SDS011;62797;49.740;10.154;2023-06-26T03:16:12;11.45;;;8.13;;
74363;SDS011;62797;49.740;10.154;2023-06-26T03:18:38;11.52;;;8.85;;
74363;SDS011;62797;49.740;10.154;2023-06-26T03:21:04;10.65;;;7.68;;
74363;SDS011;62797;49.740;10.154;2023-06-26T03:23:33;12.27;;;9.32;;
74363;SDS011;62797;49.740;10.154;2023-06-26T03:25:58;13.50;;;8.13;;
74363;SDS011;62797;49.740;10.154;2023-06-26T03:31:01;10.95;;;7.32;;
74363;SDS011;62797;49.740;10.154;2023-06-26T03:33:27;12.82;;;7.05;;
74363;SDS011;62797;49.740;10.154;2023-06-26T03:35:55;13.35;;;8.25;;
74363;SDS011;62797;49.740;10.154;2023-06-26T03:38:21;14.75;;;8.60;;
74363;SDS011;62797;49.740;10.154;2023-06-26T03:40:53;13.15;;;8.10;;
74363;SDS011;62797;49.740;10.154;2023-06-26T03:43:21;20.73;;;8.95;;
74363;SDS011;62797;49.740;10.154;2023-06-26T03:46:09;11.15;;;8.00;;
74363;SDS011;62797;49.740;10.154;2023-06-26T03:48:35;17.13;;;8.82;;
74363;SDS011;62797;49.740;10.154;2023-06-26T03:51:02;14.30;;;8.50;;
74363;SDS011;62797;49.740;10.154;2023-06-26T03:53:29;12.23;;;7.88;;
74363;SDS011;62797;49.740;10.154;2023-06-26T03:55:55;16.85;;;8.10;;
74363;SDS011;62797;49.740;10.154;2023-06-26T03:58:22;13.75;;;8.52;;
74363;SDS011;62797;49.740;10.154;2023-06-26T04:00:48;14.45;;;7.78;;
74363;SDS011;62797;49.740;10.154;2023-06-26T04:03:14;15.82;;;9.57;;
74363;SDS011;62797;49.740;10.154;2023-06-26T04:05:41;12.80;;;8.10;;
74363;SDS011;62797;49.740;10.154;2023-06-26T04:08:07;15.35;;;9.23;;
74363;SDS011;62797;49.740;10.154;2023-06-26T04:10:34;12.82;;;8.00;;
74363;SDS011;62797;49.740;10.154;2023-06-26T04:13:01;14.55;;;8.02;;
74363;SDS011;62797;49.740;10.154;2023-06-26T04:15:30;14.98;;;7.70;;
74363;SDS011;62797;49.740;10.154;2023-06-26T04:17:56;14.75;;;8.65;;
74363;SDS011;62797;49.740;10.154;2023-06-26T04:20:21;13.80;;;8.30;;
74363;SDS011;62797;49.740;10.154;2023-06-26T04:22:47;13.75;;;8.65;;
74363;SDS011;62797;49.740;10.154;2023-06-26T04:25:13;14.05;;;8.63;;
74363;SDS011;62797;49.740;10.154;2023-06-26T04:27:39;15.90;;;8.02;;
74363;SDS011;62797;49.740;10.154;2023-06-26T04:30:05;10.73;;;7.80;;
74363;SDS011;62797;49.740;10.154;2023-06-26T04:34:57;20.83;;;8.52;;
74363;SDS011;62797;49.740;10.154;2023-06-26T04:37:23;11.27;;;8.63;;
74363;SDS011;62797;49.740;10.154;2023-06-26T04:39:50;14.77;;;8.27;;
74363;SDS011;62797;49.740;10.154;2023-06-26T04:42:16;11.52;;;7.57;;
74363;SDS011;62797;49.740;10.154;2023-06-26T04:44:41;12.68;;;8.93;;
74363;SDS011;62797;49.740;10.154;2023-06-26T04:47:07;16.08;;;8.75;;
74363;SDS011;62797;49.740;10.154;2023-06-26T04:49:34;14.93;;;9.80;;
74363;SDS011;62797;49.740;10.154;2023-06-26T04:52:00;13.77;;;9.15;;
74363;SDS011;62797;49.740;10.154;2023-06-26T04:54:26;12.88;;;9.25;;
74363;SDS011;62797;49.740;10.154;2023-06-26T04:56:53;12.13;;;8.85;;
74363;SDS011;62797;49.740;10.154;2023-06-26T04:59:19;10.73;;;7.53;;
74363;SDS011;62797;49.740;10.154;2023-06-26T05:01:44;13.00;;;9.77;;
74363;SDS011;62797;49.740;10.154;2023-06-26T05:04:13;11.40;;;8.57;;
74363;SDS011;62797;49.740;10.154;2023-06-26T05:06:40;11.45;;;8.30;;
74363;SDS011;62797;49.740;10.154;2023-06-26T05:09:06;12.50;;;8.55;;
74363;SDS011;62797;49.740;10.154;2023-06-26T05:11:32;15.40;;;7.53;;
74363;SDS011;62797;49.740;10.154;2023-06-26T05:13:58;13.35;;;7.47;;
74363;SDS011;62797;49.740;10.154;2023-06-26T05:16:24;18.17;;;7.80;;
74363;SDS011;62797;49.740;10.154;2023-06-26T05:18:50;14.63;;;7.85;;
74363;SDS011;62797;49.740;10.154;2023-06-26T05:21:16;13.83;;;8.17;;
74363;SDS011;62797;49.740;10.154;2023-06-26T05:23:42;14.10;;;7.18;;
74363;SDS011;62797;49.740;10.154;2023-06-26T05:26:09;14.00;;;8.65;;
74363;SDS011;62797;49.740;10.154;2023-06-26T05:28:38;14.27;;;7.72;;
74363;SDS011;62797;49.740;10.154;2023-06-26T05:31:05;11.20;;;7.80;;
74363;SDS011;62797;49.740;10.154;2023-06-26T05:33:31;15.40;;;8.07;;
74363;SDS011;62797;49.740;10.154;2023-06-26T05:36:00;11.52;;;8.20;;
74363;SDS011;62797;49.740;10.154;2023-06-26T05:38:30;15.77;;;8.35;;
74363;SDS011;62797;49.740;10.154;2023-06-26T05:40:57;13.10;;;7.45;;
74363;SDS011;62797;49.740;10.154;2023-06-26T05:43:23;10.70;;;7.38;;
74363;SDS011;62797;49.740;10.154;2023-06-26T05:45:49;12.82;;;7.05;;
74363;SDS011;62797;49.740;10.154;2023-06-26T05:48:15;12.55;;;6.72;;
74363;SDS011;62797;49.740;10.154;2023-06-26T05:50:41;12.70;;;7.35;;
74363;SDS011;62797;49.740;10.154;2023-06-26T05:53:08;13.32;;;7.97;;
74363;SDS011;62797;49.740;10.154;2023-06-26T05:55:34;11.32;;;7.32;;
74363;SDS011;62797;49.740;10.154;2023-06-26T05:58:00;14.57;;;7.55;;
74363;SDS011;62797;49.740;10.154;2023-06-26T06:00:28;14.88;;;8.00;;
74363;SDS011;62797;49.740;10.154;2023-06-26T06:02:54;13.43;;;8.10;;
74363;SDS011;62797;49.740;10.154;2023-06-26T06:05:21;12.30;;;7.40;;
74363;SDS011;62797;49.740;10.154;2023-06-26T06:07:50;13.02;;;7.65;;
74363;SDS011;62797;49.740;10.154;2023-06-26T06:10:16;11.48;;;7.63;;
74363;SDS011;62797;49.740;10.154;2023-06-26T06:12:42;12.40;;;7.75;;
74363;SDS011;62797;49.740;10.154;2023-06-26T06:15:08;10.50;;;6.68;;
74363;SDS011;62797;49.740;10.154;2023-06-26T06:17:34;11.63;;;7.18;;
74363;SDS011;62797;49.740;10.154;2023-06-26T06:20:03;11.65;;;8.32;;
74363;SDS011;62797;49.740;10.154;2023-06-26T06:22:30;10.30;;;7.35;;
74363;SDS011;62797;49.740;10.154;2023-06-26T06:24:55;10.30;;;7.38;;
74363;SDS011;62797;49.740;10.154;2023-06-26T06:27:21;14.60;;;7.03;;
74363;SDS011;62797;49.740;10.154;2023-06-26T06:32:14;13.15;;;7.50;;
74363;SDS011;62797;49.740;10.154;2023-06-26T06:34:39;12.93;;;7.38;;
74363;SDS011;62797;49.740;10.154;2023-06-26T06:37:06;10.85;;;7.28;;
74363;SDS011;62797;49.740;10.154;2023-06-26T06:39:31;13.77;;;7.18;;
74363;SDS011;62797;49.740;10.154;2023-06-26T06:41:57;9.27;;;6.93;;
74363;SDS011;62797;49.740;10.154;2023-06-26T06:44:23;18.02;;;8.25;;
74363;SDS011;62797;49.740;10.154;2023-06-26T06:46:49;14.07;;;7.63;;
74363;SDS011;62797;49.740;10.154;2023-06-26T06:49:15;11.68;;;7.32;;
74363;SDS011;62797;49.740;10.154;2023-06-26T06:51:41;18.67;;;7.30;;
74363;SDS011;62797;49.740;10.154;2023-06-26T06:54:06;12.13;;;7.88;;
74363;SDS011;62797;49.740;10.154;2023-06-26T06:56:32;9.98;;;6.75;;
74363;SDS011;62797;49.740;10.154;2023-06-26T06:58:58;11.20;;;6.95;;
74363;SDS011;62797;49.740;10.154;2023-06-26T07:01:23;12.60;;;7.57;;
74363;SDS011;62797;49.740;10.154;2023-06-26T07:03:49;10.40;;;6.68;;
74363;SDS011;62797;49.740;10.154;2023-06-26T07:06:15;9.90;;;6.47;;
74363;SDS011;62797;49.740;10.154;2023-06-26T07:08:41;13.05;;;7.57;;
74363;SDS011;62797;49.740;10.154;2023-06-26T07:11:06;13.55;;;7.28;;
74363;SDS011;62797;49.740;10.154;2023-06-26T07:13:32;13.25;;;7.90;;
74363;SDS011;62797;49.740;10.154;2023-06-26T07:15:58;13.30;;;8.10;;
74363;SDS011;62797;49.740;10.154;2023-06-26T07:18:25;13.40;;;7.93;;
74363;SDS011;62797;49.740;10.154;2023-06-26T07:20:50;11.02;;;7.05;;
74363;SDS011;62797;49.740;10.154;2023-06-26T07:23:16;11.07;;;7.10;;
74363;SDS011;62797;49.740;10.154;2023-06-26T07:25:42;11.90;;;7.15;;
74363;SDS011;62797;49.740;10.154;2023-06-26T07:28:11;12.05;;;7.68;;
74363;SDS011;62797;49.740;10.154;2023-06-26T07:30:38;11.30;;;7.03;;
74363;SDS011;62797;49.740;10.154;2023-06-26T07:33:04;10.50;;;6.97;;
74363;SDS011;62797;49.740;10.154;2023-06-26T07:35:30;14.57;;;8.05;;
74363;SDS011;62797;49.740;10.154;2023-06-26T07:37:56;12.35;;;6.93;;
74363;SDS011;62797;49.740;10.154;2023-06-26T07:40:22;14.93;;;6.93;;
74363;SDS011;62797;49.740;10.154;2023-06-26T07:42:48;13.40;;;7.88;;
74363;SDS011;62797;49.740;10.154;2023-06-26T07:45:14;10.75;;;7.68;;
74363;SDS011;62797;49.740;10.154;2023-06-26T07:47:40;13.57;;;7.68;;
74363;SDS011;62797;49.740;10.154;2023-06-26T07:50:06;13.80;;;8.32;;
74363;SDS011;62797;49.740;10.154;2023-06-26T07:52:33;12.13;;;8.02;;
74363;SDS011;62797;49.740;10.154;2023-06-26T07:54:59;11.82;;;7.85;;
74363;SDS011;62797;49.740;10.154;2023-06-26T07:57:25;16.77;;;8.38;;
74363;SDS011;62797;49.740;10.154;2023-06-26T07:59:51;10.63;;;6.95;;
74363;SDS011;62797;49.740;10.154;2023-06-26T08:02:17;11.93;;;7.38;;
74363;SDS011;62797;49.740;10.154;2023-06-26T08:04:43;16.35;;;8.45;;
74363;SDS011;62797;49.740;10.154;2023-06-26T08:09:35;15.88;;;8.00;;
74363;SDS011;62797;49.740;10.154;2023-06-26T08:12:01;13.30;;;8.63;;
74363;SDS011;62797;49.740;10.154;2023-06-26T08:14:27;15.35;;;8.57;;
74363;SDS011;62797;49.740;10.154;2023-06-26T08:16:56;11.20;;;7.82;;
74363;SDS011;62797;49.740;10.154;2023-06-26T08:19:22;13.60;;;7.50;;
74363;SDS011;62797;49.740;10.154;2023-06-26T08:21:51;11.05;;;7.80;;
74363;SDS011;62797;49.740;10.154;2023-06-26T08:24:17;15.75;;;7.57;;
74363;SDS011;62797;49.740;10.154;2023-06-26T08:26:44;12.10;;;7.22;;
74363;SDS011;62797;49.740;10.154;2023-06-26T08:29:11;12.75;;;7.60;;
74363;SDS011;62797;49.740;10.154;2023-06-26T08:34:04;11.02;;;7.82;;
74363;SDS011;62797;49.740;10.154;2023-06-26T08:38:59;12.10;;;7.53;;
74363;SDS011;62797;49.740;10.154;2023-06-26T08:41:25;11.18;;;7.15;;
74363;SDS011;62797;49.740;10.154;2023-06-26T08:43:51;10.98;;;7.20;;
74363;SDS011;62797;49.740;10.154;2023-06-26T08:46:18;10.50;;;8.45;;
74363;SDS011;62797;49.740;10.154;2023-06-26T08:48:57;11.63;;;7.63;;
74363;SDS011;62797;49.740;10.154;2023-06-26T08:51:48;10.98;;;7.30;;
74363;SDS011;62797;49.740;10.154;2023-06-26T08:54:18;12.52;;;8.48;;
74363;SDS011;62797;49.740;10.154;2023-06-26T08:56:47;12.60;;;8.55;;
74363;SDS011;62797;49.740;10.154;2023-06-26T08:59:15;9.45;;;7.43;;
74363;SDS011;62797;49.740;10.154;2023-06-26T09:01:44;13.98;;;7.53;;
74363;SDS011;62797;49.740;10.154;2023-06-26T09:06:37;13.43;;;7.88;;
74363;SDS011;62797;49.740;10.154;2023-06-26T09:09:04;11.40;;;7.43;;
74363;SDS011;62797;49.740;10.154;2023-06-26T09:11:30;17.20;;;8.15;;
74363;SDS011;62797;49.740;10.154;2023-06-26T09:13:56;9.55;;;7.22;;
74363;SDS011;62797;49.740;10.154;2023-06-26T09:16:25;12.95;;;7.40;;
74363;SDS011;62797;49.740;10.154;2023-06-26T09:18:52;11.55;;;6.80;;
74363;SDS011;62797;49.740;10.154;2023-06-26T09:21:18;8.07;;;5.97;;
74363;SDS011;62797;49.740;10.154;2023-06-26T09:23:44;17.23;;;8.27;;
74363;SDS011;62797;49.740;10.154;2023-06-26T09:26:10;10.32;;;6.47;;
74363;SDS011;62797;49.740;10.154;2023-06-26T09:28:37;12.93;;;6.97;;
74363;SDS011;62797;49.740;10.154;2023-06-26T09:31:07;8.93;;;6.28;;
74363;SDS011;62797;49.740;10.154;2023-06-26T09:33:36;9.20;;;6.80;;
74363;SDS011;62797;49.740;10.154;2023-06-26T09:36:06;11.68;;;7.63;;
74363;SDS011;62797;49.740;10.154;2023-06-26T09:38:34;10.27;;;7.85;;
74363;SDS011;62797;49.740;10.154;2023-06-26T09:41:01;8.38;;;5.88;;
74363;SDS011;62797;49.740;10.154;2023-06-26T09:43:30;10.13;;;7.25;;
74363;SDS011;62797;49.740;10.154;2023-06-26T09:45:56;7.28;;;5.65;;
74363;SDS011;62797;49.740;10.154;2023-06-26T09:48:23;11.18;;;6.25;;
74363;SDS011;62797;49.740;10.154;2023-06-26T09:50:49;12.02;;;6.45;;
74363;SDS011;62797;49.740;10.154;2023-06-26T09:53:15;8.82;;;7.28;;
74363;SDS011;62797;49.740;10.154;2023-06-26T09:55:43;14.10;;;7.15;;
74363;SDS011;62797;49.740;10.154;2023-06-26T09:58:12;13.30;;;6.95;;
74363;SDS011;62797;49.740;10.154;2023-06-26T10:14:43;8.77;;;7.03;;
74363;SDS011;62797;49.740;10.154;2023-06-26T10:17:10;7.47;;;6.50;;
74363;SDS011;62797;49.740;10.154;2023-06-26T10:19:40;11.20;;;6.63;;
74363;SDS011;62797;49.740;10.154;2023-06-26T10:22:09;8.40;;;6.50;;
74363;SDS011;62797;49.740;10.154;2023-06-26T10:24:36;7.57;;;5.80;;
74363;SDS011;62797;49.740;10.154;2023-06-26T10:27:08;8.15;;;6.53;;
74363;SDS011;62797;49.740;10.154;2023-06-26T10:29:42;9.73;;;6.35;;
74363;SDS011;62797;49.740;10.154;2023-06-26T10:32:11;9.82;;;7.10;;
74363;SDS011;62797;49.740;10.154;2023-06-26T10:34:39;10.48;;;6.20;;
74363;SDS011;62797;49.740;10.154;2023-06-26T10:37:05;7.25;;;5.43;;
74363;SDS011;62797;49.740;10.154;2023-06-26T10:42:17;10.05;;;6.28;;
74363;SDS011;62797;49.740;10.154;2023-06-26T10:44:44;8.02;;;6.32;;
74363;SDS011;62797;49.740;10.154;2023-06-26T10:47:35;10.40;;;5.22;;
74363;SDS011;62797;49.740;10.154;2023-06-26T10:50:18;6.45;;;5.05;;
74363;SDS011;62797;49.740;10.154;2023-06-26T10:55:48;7.30;;;5.47;;
74363;SDS011;62797;49.740;10.154;2023-06-26T11:03:43;5.82;;;5.18;;
74363;SDS011;62797;49.740;10.154;2023-06-26T11:06:10;10.30;;;6.13;;
74363;SDS011;62797;49.740;10.154;2023-06-26T11:11:18;8.68;;;6.53;;
74363;SDS011;62797;49.740;10.154;2023-06-26T11:13:45;9.55;;;6.70;;
74363;SDS011;62797;49.740;10.154;2023-06-26T11:16:13;7.97;;;6.32;;
74363;SDS011;62797;49.740;10.154;2023-06-26T11:18:40;8.15;;;6.28;;
74363;SDS011;62797;49.740;10.154;2023-06-26T11:21:10;10.13;;;6.75;;
74363;SDS011;62797;49.740;10.154;2023-06-26T11:23:38;8.80;;;6.85;;
74363;SDS011;62797;49.740;10.154;2023-06-26T11:26:18;12.52;;;6.22;;
74363;SDS011;62797;49.740;10.154;2023-06-26T11:31:39;11.75;;;5.82;;
74363;SDS011;62797;49.740;10.154;2023-06-26T11:34:07;9.90;;;6.35;;
74363;SDS011;62797;49.740;10.154;2023-06-26T11:36:35;6.72;;;5.53;;
74363;SDS011;62797;49.740;10.154;2023-06-26T11:39:02;10.27;;;6.43;;
74363;SDS011;62797;49.740;10.154;2023-06-26T11:41:34;9.23;;;5.88;;
74363;SDS011;62797;49.740;10.154;2023-06-26T11:44:01;7.95;;;6.47;;
74363;SDS011;62797;49.740;10.154;2023-06-26T11:46:31;6.82;;;5.90;;
74363;SDS011;62797;49.740;10.154;2023-06-26T11:48:59;7.50;;;6.20;;
74363;SDS011;62797;49.740;10.154;2023-06-26T11:51:28;9.30;;;6.20;;
74363;SDS011;62797;49.740;10.154;2023-06-26T11:53:54;8.85;;;5.93;;
74363;SDS011;62797;49.740;10.154;2023-06-26T11:56:20;8.63;;;6.47;;
74363;SDS011;62797;49.740;10.154;2023-06-26T11:58:58;8.85;;;6.35;;
74363;SDS011;62797;49.740;10.154;2023-06-26T12:01:35;7.63;;;6.50;;
74363;SDS011;62797;49.740;10.154;2023-06-26T12:04:03;6.97;;;6.00;;
74363;SDS011;62797;49.740;10.154;2023-06-26T12:06:30;7.05;;;6.13;;
74363;SDS011;62797;49.740;10.154;2023-06-26T12:08:58;15.38;;;6.47;;
74363;SDS011;62797;49.740;10.154;2023-06-26T12:11:30;6.85;;;6.05;;
74363;SDS011;62797;49.740;10.154;2023-06-26T12:14:00;10.13;;;6.13;;
74363;SDS011;62797;49.740;10.154;2023-06-26T12:16:29;10.18;;;6.13;;
74363;SDS011;62797;49.740;10.154;2023-06-26T12:18:59;12.63;;;6.22;;
74363;SDS011;62797;49.740;10.154;2023-06-26T12:24:08;11.23;;;6.35;;
74363;SDS011;62797;49.740;10.154;2023-06-26T12:26:37;9.10;;;5.25;;
74363;SDS011;62797;49.740;10.154;2023-06-26T12:29:07;7.97;;;5.55;;
74363;SDS011;62797;49.740;10.154;2023-06-26T12:31:39;8.38;;;6.20;;
74363;SDS011;62797;49.740;10.154;2023-06-26T12:34:10;14.40;;;6.88;;
74363;SDS011;62797;49.740;10.154;2023-06-26T12:36:42;12.20;;;6.93;;
74363;SDS011;62797;49.740;10.154;2023-06-26T12:39:10;12.07;;;6.43;;
74363;SDS011;62797;49.740;10.154;2023-06-26T12:41:44;8.48;;;5.95;;
74363;SDS011;62797;49.740;10.154;2023-06-26T12:44:27;12.48;;;6.38;;
74363;SDS011;62797;49.740;10.154;2023-06-26T12:46:59;12.35;;;7.07;;
74363;SDS011;62797;49.740;10.154;2023-06-26T12:49:33;10.70;;;6.78;;
74363;SDS011;62797;49.740;10.154;2023-06-26T12:52:00;9.02;;;5.68;;
74363;SDS011;62797;49.740;10.154;2023-06-26T12:54:27;9.02;;;6.25;;
74363;SDS011;62797;49.740;10.154;2023-06-26T12:56:54;10.02;;;6.68;;
74363;SDS011;62797;49.740;10.154;2023-06-26T13:01:46;8.77;;;6.43;;
74363;SDS011;62797;49.740;10.154;2023-06-26T13:04:12;8.95;;;6.55;;
74363;SDS011;62797;49.740;10.154;2023-06-26T13:09:04;36.47;;;7.65;;
74363;SDS011;62797;49.740;10.154;2023-06-26T13:11:38;12.65;;;6.85;;
74363;SDS011;62797;49.740;10.154;2023-06-26T13:14:05;8.73;;;7.32;;
74363;SDS011;62797;49.740;10.154;2023-06-26T13:19:00;8.93;;;7.63;;
74363;SDS011;62797;49.740;10.154;2023-06-26T13:21:27;15.75;;;8.35;;
74363;SDS011;62797;49.740;10.154;2023-06-26T13:23:56;9.48;;;6.78;;
74363;SDS011;62797;49.740;10.154;2023-06-26T13:26:22;15.30;;;8.25;;
74363;SDS011;62797;49.740;10.154;2023-06-26T13:28:49;12.48;;;8.88;;
74363;SDS011;62797;49.740;10.154;2023-06-26T13:31:15;11.18;;;7.10;;
74363;SDS011;62797;49.740;10.154;2023-06-26T13:33:41;10.50;;;7.50;;
74363;SDS011;62797;49.740;10.154;2023-06-26T13:36:10;10.60;;;8.23;;
74363;SDS011;62797;49.740;10.154;2023-06-26T13:41:05;12.18;;;8.45;;
74363;SDS011;62797;49.740;10.154;2023-06-26T13:43:31;8.90;;;7.60;;
74363;SDS011;62797;49.740;10.154;2023-06-26T13:48:23;11.07;;;8.45;;
74363;SDS011;62797;49.740;10.154;2023-06-26T13:50:52;10.07;;;6.93;;
74363;SDS011;62797;49.740;10.154;2023-06-26T13:53:18;16.27;;;7.88;;
74363;SDS011;62797;49.740;10.154;2023-06-26T13:58:13;17.50;;;8.30;;
74363;SDS011;62797;49.740;10.154;2023-06-26T14:00:39;9.05;;;7.30;;
74363;SDS011;62797;49.740;10.154;2023-06-26T14:03:06;10.20;;;7.85;;
74363;SDS011;62797;49.740;10.154;2023-06-26T14:05:36;11.57;;;8.25;;
74363;SDS011;62797;49.740;10.154;2023-06-26T14:08:04;13.68;;;8.35;;
74363;SDS011;62797;49.740;10.154;2023-06-26T14:10:33;17.83;;;7.35;;
74363;SDS011;62797;49.740;10.154;2023-06-26T14:12:59;8.05;;;7.13;;
74363;SDS011;62797;49.740;10.154;2023-06-26T14:15:26;11.38;;;7.95;;
74363;SDS011;62797;49.740;10.154;2023-06-26T14:17:56;13.48;;;8.38;;
74363;SDS011;62797;49.740;10.154;2023-06-26T14:20:22;7.88;;;6.97;;
74363;SDS011;62797;49.740;10.154;2023-06-26T14:25:14;16.17;;;8.13;;
74363;SDS011;62797;49.740;10.154;2023-06-26T14:27:41;11.30;;;8.43;;
74363;SDS011;62797;49.740;10.154;2023-06-26T14:30:08;11.25;;;8.65;;
74363;SDS011;62797;49.740;10.154;2023-06-26T14:32:34;19.05;;;7.97;;
74363;SDS011;62797;49.740;10.154;2023-06-26T14:38:29;10.50;;;7.72;;
74363;SDS011;62797;49.740;10.154;2023-06-26T14:40:55;21.35;;;7.97;;
74363;SDS011;62797;49.740;10.154;2023-06-26T14:43:21;15.30;;;6.68;;
74363;SDS011;62797;49.740;10.154;2023-06-26T14:48:12;10.23;;;6.82;;
74363;SDS011;62797;49.740;10.154;2023-06-26T14:50:38;12.02;;;7.85;;
74363;SDS011;62797;49.740;10.154;2023-06-26T14:53:05;11.38;;;7.50;;
74363;SDS011;62797;49.740;10.154;2023-06-26T14:55:33;11.18;;;6.65;;
74363;SDS011;62797;49.740;10.154;2023-06-26T15:00:25;9.40;;;5.50;;
74363;SDS011;62797;49.740;10.154;2023-06-26T15:02:52;8.63;;;6.68;;
74363;SDS011;62797;49.740;10.154;2023-06-26T15:05:19;9.27;;;7.65;;
74363;SDS011;62797;49.740;10.154;2023-06-26T15:07:47;41.90;;;7.20;;
74363;SDS011;62797;49.740;10.154;2023-06-26T15:12:38;11.75;;;6.95;;
74363;SDS011;62797;49.740;10.154;2023-06-26T15:15:04;10.00;;;6.85;;
74363;SDS011;62797;49.740;10.154;2023-06-26T15:17:32;13.70;;;7.78;;
74363;SDS011;62797;49.740;10.154;2023-06-26T15:19:59;10.38;;;6.78;;
74363;SDS011;62797;49.740;10.154;2023-06-26T15:22:28;14.15;;;6.13;;
74363;SDS011;62797;49.740;10.154;2023-06-26T15:24:54;9.18;;;6.90;;
74363;SDS011;62797;49.740;10.154;2023-06-26T15:27:19;12.30;;;7.30;;
74363;SDS011;62797;49.740;10.154;2023-06-26T15:29:45;12.07;;;5.88;;
74363;SDS011;62797;49.740;10.154;2023-06-26T15:32:11;12.93;;;6.20;;
74363;SDS011;62797;49.740;10.154;2023-06-26T15:34:37;11.68;;;6.90;;
74363;SDS011;62797;49.740;10.154;2023-06-26T15:37:03;10.02;;;6.00;;
74363;SDS011;62797;49.740;10.154;2023-06-26T15:39:34;9.57;;;6.90;;
74363;SDS011;62797;49.740;10.154;2023-06-26T15:42:00;15.18;;;6.75;;
74363;SDS011;62797;49.740;10.154;2023-06-26T15:44:27;10.10;;;7.03;;
74363;SDS011;62797;49.740;10.154;2023-06-26T15:46:53;10.43;;;6.93;;
74363;SDS011;62797;49.740;10.154;2023-06-26T15:49:19;9.38;;;7.03;;
74363;SDS011;62797;49.740;10.154;2023-06-26T15:51:45;16.77;;;7.85;;
74363;SDS011;62797;49.740;10.154;2023-06-26T15:54:12;13.68;;;6.93;;
74363;SDS011;62797;49.740;10.154;2023-06-26T15:56:38;11.85;;;7.88;;
74363;SDS011;62797;49.740;10.154;2023-06-26T15:59:04;10.32;;;7.20;;